Time;durP1;ratioP1;P1;durP2;ratioP2;P2;SDS_P1;SDS_P2;PMS_P1;PMS_P2;Temp;Humidity;BMP_temperature;BMP_pressure;BME280_temperature;BME280_humidity;BME280_pressure;Samples;Min_cycle;Max_cycle;Signal;HPM_P1;HPM_P2
2023/03/25 00:00:56;;;;;;;10.30;4.20;;;;;;;9.11;100.00;100064.91;5043884;28;20774;-72
2023/03/25 00:03:23;;;;;;;8.13;4.03;;;;;;;9.09;100.00;100069.13;5040439;28;20726;-72
2023/03/25 00:05:48;;;;;;;6.83;3.60;;;;;;;9.05;100.00;100067.38;5028585;28;20603;-72
2023/03/25 00:08:14;;;;;;;6.97;3.27;;;;;;;9.03;100.00;100066.47;5049281;28;20193;-71
2023/03/25 00:10:40;;;;;;;8.63;3.57;;;;;;;9.03;100.00;100063.09;5046088;28;20198;-70
2023/03/25 00:13:07;;;;;;;7.77;3.30;;;;;;;9.02;100.00;100061.34;5024923;28;20383;-70
2023/03/25 00:15:32;;;;;;;10.53;3.87;;;;;;;9.00;100.00;100060.50;5041546;28;20200;-72
2023/03/25 00:18:00;;;;;;;6.53;3.63;;;;;;;8.96;100.00;100058.72;5045494;28;20189;-71
2023/03/25 00:20:26;;;;;;;6.10;3.63;;;;;;;8.93;100.00;100058.69;5025998;28;20572;-71
2023/03/25 00:22:53;;;;;;;7.60;3.30;;;;;;;8.92;100.00;100062.94;5027656;28;20317;-73
2023/03/25 00:25:19;;;;;;;5.47;3.47;;;;;;;8.90;100.00;100059.50;5040246;28;20272;-72
2023/03/25 00:27:47;;;;;;;4.63;3.57;;;;;;;8.87;100.00;100054.38;5046054;28;20207;-73
2023/03/25 00:30:17;;;;;;;8.33;3.90;;;;;;;8.85;100.00;100044.97;5030247;28;20287;-72
2023/03/25 00:32:51;;;;;;;8.87;3.67;;;;;;;8.85;100.00;100050.09;5044358;28;20224;-71
2023/03/25 00:35:18;;;;;;;7.60;4.20;;;;;;;8.85;100.00;100038.16;5030214;28;20697;-71
2023/03/25 00:37:46;;;;;;;4.57;3.30;;;;;;;8.82;100.00;100039.81;5025232;28;20193;-70
2023/03/25 00:40:13;;;;;;;5.20;3.17;;;;;;;8.85;100.00;100050.09;5027021;28;20672;-70
2023/03/25 00:42:43;;;;;;;6.63;3.43;;;;;;;8.88;100.00;100040.75;5041066;28;20938;-70
2023/03/25 00:45:11;;;;;;;7.87;3.40;;;;;;;8.84;100.00;100044.13;5029079;28;20690;-72
2023/03/25 00:47:36;;;;;;;5.53;3.57;;;;;;;8.83;100.00;100034.75;5027054;28;20555;-74
2023/03/25 00:50:03;;;;;;;5.87;4.10;;;;;;;8.81;100.00;100035.56;5023098;28;20252;-73
2023/03/25 00:52:28;;;;;;;6.37;3.90;;;;;;;8.80;100.00;100037.25;5024992;28;20247;-71
2023/03/25 00:54:54;;;;;;;8.57;4.30;;;;;;;8.77;100.00;100036.34;5010652;28;20658;-72
2023/03/25 00:57:20;;;;;;;8.70;3.93;;;;;;;8.81;100.00;100035.56;5027835;28;20196;-70
2023/03/25 00:59:45;;;;;;;7.23;4.07;;;;;;;8.81;100.00;100044.06;5033981;28;20189;-74
2023/03/25 01:02:10;;;;;;;6.83;3.50;;;;;;;8.86;100.00;100049.25;5043965;28;20784;-70
2023/03/25 01:04:38;;;;;;;7.13;4.10;;;;;;;8.89;100.00;100042.47;5029600;28;20686;-71
2023/03/25 01:07:03;;;;;;;5.80;3.70;;;;;;;8.93;100.00;100043.38;5047227;28;20623;-72
2023/03/25 01:09:29;;;;;;;6.90;4.03;;;;;;;8.93;100.00;100046.78;5045781;28;20201;-72
2023/03/25 01:11:55;;;;;;;6.83;3.73;;;;;;;8.93;100.00;100040.81;5039733;28;20200;-70
2023/03/25 01:14:23;;;;;;;7.17;4.00;;;;;;;8.96;100.00;100034.06;5027412;28;20194;-71
2023/03/25 01:16:49;;;;;;;6.87;4.37;;;;;;;8.98;100.00;100032.38;5029131;28;20186;-71
2023/03/25 01:19:14;;;;;;;10.67;4.10;;;;;;;9.00;100.00;100034.97;5038016;28;20220;-70
2023/03/25 01:21:40;;;;;;;7.30;3.73;;;;;;;9.02;100.00;100035.81;5029761;28;20198;-72
2023/03/25 01:24:10;;;;;;;5.23;3.67;;;;;;;9.03;100.00;100037.56;5046991;28;20209;-71
2023/03/25 01:26:36;;;;;;;6.47;3.67;;;;;;;9.05;100.00;100033.31;5030000;28;20940;-72
2023/03/25 01:29:03;;;;;;;8.73;4.00;;;;;;;9.10;100.00;100036.78;5026345;28;20690;-73
2023/03/25 01:31:31;;;;;;;7.23;3.63;;;;;;;9.11;100.00;100028.28;5031934;28;20192;-71
2023/03/25 01:33:58;;;;;;;8.67;3.80;;;;;;;9.13;100.00;100029.16;5052224;28;20241;-71
2023/03/25 01:36:28;;;;;;;7.93;3.80;;;;;;;9.12;100.00;100023.19;5050454;28;20229;-72
2023/03/25 01:38:54;;;;;;;5.97;3.83;;;;;;;9.12;100.00;100024.91;5031957;28;20217;-71
2023/03/25 01:41:20;;;;;;;8.60;3.80;;;;;;;9.12;100.00;100020.63;5012920;28;20746;-70
2023/03/25 01:44:06;;;;;;;6.00;3.57;;;;;;;9.10;100.00;100019.78;5033058;28;20213;-72
2023/03/25 01:46:32;;;;;;;6.70;3.20;;;;;;;9.10;100.00;100022.31;5043494;28;20288;-70
2023/03/25 01:49:01;;;;;;;5.97;3.70;;;;;;;9.14;100.00;100018.97;5016441;28;20185;-70
2023/03/25 01:51:31;;;;;;;11.57;3.63;;;;;;;9.17;100.00;100023.25;5030359;28;20193;-72
2023/03/25 01:53:56;;;;;;;6.17;3.07;;;;;;;9.15;100.00;100018.13;5047139;28;20594;-70
2023/03/25 01:56:30;;;;;;;8.33;3.53;;;;;;;9.17;100.00;100015.59;5029392;28;20670;-70
2023/03/25 01:58:58;;;;;;;9.00;4.03;;;;;;;9.16;100.00;100012.16;5033300;28;20198;-71
2023/03/25 02:01:25;;;;;;;5.50;3.60;;;;;;;9.18;100.00;100007.09;5050213;28;20201;-71
2023/03/25 02:04:01;;;;;;;7.77;4.00;;;;;;;9.25;100.00;100009.72;5049648;28;20225;-70
2023/03/25 02:06:33;;;;;;;6.93;3.60;;;;;;;9.25;100.00;100002.06;5032201;28;20228;-70
2023/03/25 02:09:03;;;;;;;8.73;3.20;;;;;;;9.26;100.00;99992.72;5051215;28;20193;-70
2023/03/25 02:11:29;;;;;;;8.77;4.20;;;;;;;9.29;100.00;99996.16;5031524;28;20212;-72
2023/03/25 02:14:01;;;;;;;9.00;4.43;;;;;;;9.32;100.00;99995.31;5048072;28;20682;-70
2023/03/25 02:16:55;;;;;;;7.00;3.70;;;;;;;9.29;100.00;99992.72;5049662;28;20198;-70
2023/03/25 02:19:34;;;;;;;5.20;3.83;;;;;;;9.29;100.00;99982.50;5033791;28;20201;-72
2023/03/25 02:22:10;;;;;;;5.57;3.70;;;;;;;9.25;100.00;99989.28;5032708;28;20189;-72
2023/03/25 02:24:42;;;;;;;9.67;4.13;;;;;;;9.32;100.00;99988.53;5046795;28;20553;-70
2023/03/25 02:27:26;;;;;;;4.70;3.47;;;;;;;9.25;100.00;99984.19;5017169;28;20226;-71
2023/03/25 02:30:05;;;;;;;7.97;4.10;;;;;;;9.28;100.00;99981.66;5033315;28;20247;-71
2023/03/25 02:32:49;;;;;;;6.03;3.17;;;;;;;9.25;100.00;99976.50;5014219;28;20229;-72
2023/03/25 02:35:20;;;;;;;8.30;3.57;;;;;;;9.26;100.00;99975.66;5043463;28;20193;-71
2023/03/25 02:37:57;;;;;;;9.27;4.10;;;;;;;9.26;100.00;99974.84;5014663;28;20667;-71
2023/03/25 02:40:36;;;;;;;10.37;3.87;;;;;;;9.25;100.00;99979.06;5029076;28;20202;-72
2023/03/25 02:43:22;;;;;;;5.83;3.57;;;;;;;9.24;100.00;99966.28;5031584;28;20232;-71
2023/03/25 02:45:51;;;;;;;7.43;3.63;;;;;;;9.27;100.00;99964.59;5048808;28;20190;-73
2023/03/25 02:48:32;;;;;;;6.83;3.37;;;;;;;9.27;100.00;99962.06;5051121;28;20274;-72
2023/03/25 02:51:03;;;;;;;7.13;3.20;;;;;;;9.24;100.00;99969.69;5034330;28;20585;-73
2023/03/25 02:53:32;;;;;;;7.73;3.57;;;;;;;9.25;100.00;99971.41;5031747;28;20266;-71
2023/03/25 02:56:02;;;;;;;6.40;3.37;;;;;;;9.22;100.00;99963.69;5048460;28;22123;-71
2023/03/25 02:58:29;;;;;;;7.30;3.53;;;;;;;9.22;100.00;99970.53;5051101;28;20181;-71
2023/03/25 03:00:57;;;;;;;8.37;3.50;;;;;;;9.21;100.00;99967.09;5014863;28;20179;-71
2023/03/25 03:03:25;;;;;;;7.77;3.47;;;;;;;9.22;100.00;99961.16;5027598;28;20216;-71
2023/03/25 03:05:54;;;;;;;8.23;3.50;;;;;;;9.25;100.00;99971.41;5031437;28;20259;-70
2023/03/25 03:08:23;;;;;;;5.00;2.77;;;;;;;9.32;100.00;99957.88;5029005;28;20323;-72
2023/03/25 03:11:03;;;;;;;8.23;3.50;;;;;;;9.36;100.00;99962.16;5049246;28;20212;-72
2023/03/25 03:13:32;;;;;;;6.07;3.20;;;;;;;9.40;100.00;99961.34;5047519;28;20228;-71
2023/03/25 03:16:20;;;;;;;7.57;3.63;;;;;;;9.40;100.00;99958.78;5050411;28;20201;-71
2023/03/25 03:19:04;;;;;;;6.57;3.23;;;;;;;9.38;100.00;99954.50;5030391;28;20227;-70
2023/03/25 03:21:39;;;;;;;7.70;3.40;;;;;;;9.35;100.00;99954.50;5047536;28;20663;-71
2023/03/25 03:24:18;;;;;;;5.63;3.20;;;;;;;9.36;100.00;99951.09;5050188;28;20225;-72
2023/03/25 03:26:55;;;;;;;6.77;3.13;;;;;;;9.35;100.00;99952.78;5047325;28;20186;-72
2023/03/25 03:29:49;;;;;;;8.03;3.53;;;;;;;9.35;100.00;99952.78;5048709;28;20185;-72
2023/03/25 03:32:47;;;;;;;5.60;3.57;;;;;;;9.35;100.00;99949.38;5041828;28;20224;-72
2023/03/25 03:35:28;;;;;;;6.70;3.63;;;;;;;9.35;100.00;99955.31;5040725;28;20199;-72
2023/03/25 03:38:01;;;;;;;5.70;3.77;;;;;;;9.33;100.00;99953.59;5032120;28;20204;-70
2023/03/25 03:40:29;;;;;;;5.40;4.00;;;;;;;9.28;100.00;99956.13;5045903;28;20194;-72
2023/03/25 03:43:00;;;;;;;8.03;3.97;;;;;;;9.25;100.00;99948.41;5024776;28;20397;-71
2023/03/25 03:45:41;;;;;;;7.83;4.20;;;;;;;9.25;100.00;99961.19;5030656;28;20219;-71
2023/03/25 03:48:17;;;;;;;6.73;4.00;;;;;;;9.23;100.00;99951.81;5027403;28;20233;-72
2023/03/25 03:50:51;;;;;;;8.23;3.77;;;;;;;9.20;100.00;99949.22;5024720;28;20194;-71
2023/03/25 03:53:27;;;;;;;5.73;3.90;;;;;;;9.19;100.00;99961.13;5045980;28;20212;-71
2023/03/25 03:56:27;;;;;;;5.20;3.90;;;;;;;9.18;100.00;99956.00;5030290;28;20190;-72
2023/03/25 03:58:58;;;;;;;6.73;4.23;;;;;;;9.18;100.00;99964.53;5048061;28;20190;-72
2023/03/25 04:01:46;;;;;;;6.27;4.17;;;;;;;9.18;100.00;99954.31;5044948;28;20585;-71
2023/03/25 04:04:21;;;;;;;6.10;3.90;;;;;;;9.16;100.00;99952.56;5042640;28;20764;-71
2023/03/25 04:06:55;;;;;;;6.10;3.53;;;;;;;9.14;100.00;99955.13;5048757;28;20198;-71
2023/03/25 04:09:33;;;;;;;9.70;4.33;;;;;;;9.12;100.00;99951.69;5029372;28;20217;-70
2023/03/25 04:12:04;;;;;;;9.03;3.90;;;;;;;9.10;100.00;99950.81;5029505;28;20231;-71
2023/03/25 04:14:31;;;;;;;6.27;3.80;;;;;;;9.12;100.00;99951.69;5028966;28;20248;-71
2023/03/25 04:16:58;;;;;;;4.43;3.30;;;;;;;9.05;100.00;99949.91;5045112;28;20212;-71
2023/03/25 04:19:25;;;;;;;7.60;3.70;;;;;;;8.99;100.00;99952.38;5028782;28;20693;-72
2023/03/25 04:21:52;;;;;;;5.80;4.00;;;;;;;8.93;100.00;99947.22;5029523;28;20202;-72
2023/03/25 04:24:18;;;;;;;5.50;3.47;;;;;;;8.89;100.00;99950.56;5031370;28;20196;-73
2023/03/25 04:26:45;;;;;;;5.60;3.17;;;;;;;8.86;100.00;99950.56;5048890;28;20584;-73
2023/03/25 04:29:12;;;;;;;5.50;4.07;;;;;;;8.90;100.00;99949.72;5031560;28;20190;-72
2023/03/25 04:31:44;;;;;;;5.13;3.43;;;;;;;8.92;100.00;99957.41;5047615;28;20655;-71
2023/03/25 04:34:15;;;;;;;7.20;3.60;;;;;;;8.93;100.00;99952.31;5043601;28;20193;-72
2023/03/25 04:36:41;;;;;;;7.33;3.70;;;;;;;8.94;100.00;99960.84;5046275;28;20205;-73
2023/03/25 04:39:10;;;;;;;9.50;3.50;;;;;;;8.96;100.00;99960.03;5049166;28;20220;-72
2023/03/25 04:41:36;;;;;;;7.10;3.63;;;;;;;8.98;100.00;99963.44;5029879;28;20699;-72
2023/03/25 04:44:01;;;;;;;7.03;3.20;;;;;;;8.98;100.00;99960.88;5043146;28;20260;-72
2023/03/25 04:46:27;;;;;;;6.53;3.00;;;;;;;9.06;100.00;99955.88;5045206;28;20206;-73
2023/03/25 04:48:55;;;;;;;5.60;2.70;;;;;;;9.07;100.00;99952.50;5042556;28;20269;-72
2023/03/25 04:51:22;;;;;;;6.97;2.80;;;;;;;9.04;100.00;99960.94;5045236;28;21056;-71
2023/03/25 04:53:47;;;;;;;5.17;2.73;;;;;;;9.03;100.00;99963.50;5042806;28;20241;-73
2023/03/25 04:56:16;;;;;;;5.00;2.40;;;;;;;9.02;100.00;99962.66;5013119;28;20236;-70
2023/03/25 04:58:42;;;;;;;5.60;2.83;;;;;;;9.05;100.00;99965.25;5047085;28;20197;-74
2023/03/25 05:01:19;;;;;;;4.87;3.10;;;;;;;9.05;100.00;99954.16;5049082;28;20652;-71
2023/03/25 05:03:49;;;;;;;6.70;2.60;;;;;;;9.07;100.00;99957.59;5043918;28;20220;-71
2023/03/25 05:06:16;;;;;;;8.93;2.43;;;;;;;9.07;100.00;99955.88;5031251;28;20272;-71
2023/03/25 05:08:42;;;;;;;6.33;1.90;;;;;;;9.08;100.00;99955.03;5034310;28;20185;-71
2023/03/25 05:11:07;;;;;;;7.87;2.50;;;;;;;9.07;100.00;99953.34;5052693;28;20287;-71
2023/03/25 05:13:33;;;;;;;6.13;2.53;;;;;;;9.09;100.00;99956.78;5034106;28;20236;-71
2023/03/25 05:15:58;;;;;;;7.63;2.60;;;;;;;9.09;100.00;99951.66;5050325;28;20198;-73
2023/03/25 05:18:24;;;;;;;5.53;2.50;;;;;;;9.15;100.00;99963.63;5050122;28;20194;-71
2023/03/25 05:20:49;;;;;;;6.10;2.37;;;;;;;9.16;100.00;99962.78;5034806;28;20196;-71
2023/03/25 05:23:16;;;;;;;4.87;2.40;;;;;;;9.20;100.00;99964.53;5032843;28;20679;-72
2023/03/25 05:25:47;;;;;;;5.70;2.17;;;;;;;9.18;100.00;99967.09;5048162;28;20198;-70
2023/03/25 05:28:13;;;;;;;6.83;2.60;;;;;;;9.23;100.00;99960.34;5050384;28;20228;-72
2023/03/25 05:30:42;;;;;;;7.03;2.50;;;;;;;9.23;100.00;99962.03;5050367;28;20203;-72
2023/03/25 05:33:12;;;;;;;8.33;2.73;;;;;;;9.23;100.00;99962.88;5046793;28;20215;-71
2023/03/25 05:35:38;;;;;;;4.97;2.30;;;;;;;9.24;100.00;99959.50;5047263;28;20297;-72
2023/03/25 05:38:04;;;;;;;8.20;2.30;;;;;;;9.25;100.00;99966.31;5048673;28;20737;-72
2023/03/25 05:40:31;;;;;;;8.10;2.53;;;;;;;9.24;100.00;99966.28;5050210;28;20194;-71
2023/03/25 05:42:57;;;;;;;6.10;2.60;;;;;;;9.21;100.00;99972.22;5050091;28;20312;-72
2023/03/25 05:45:22;;;;;;;9.47;2.57;;;;;;;9.19;100.00;99978.16;5055058;28;20657;-70
2023/03/25 05:47:48;;;;;;;7.57;2.90;;;;;;;9.17;100.00;99982.41;5049229;28;20190;-72
2023/03/25 05:50:14;;;;;;;6.37;3.30;;;;;;;9.12;100.00;99973.84;5050925;28;20220;-72
2023/03/25 05:52:40;;;;;;;5.83;2.53;;;;;;;9.10;100.00;99985.69;5049114;28;21129;-72
2023/03/25 05:55:09;;;;;;;5.80;2.80;;;;;;;9.08;100.00;99985.69;5046746;28;20186;-70
2023/03/25 05:57:35;;;;;;;11.63;3.30;;;;;;;9.07;100.00;99983.13;5031162;28;20268;-70
2023/03/25 06:00:01;;;;;;;8.23;3.00;;;;;;;9.05;100.00;99987.34;5051231;28;20651;-71
2023/03/25 06:02:38;;;;;;;7.67;3.07;;;;;;;9.01;100.00;99983.91;5050009;28;20424;-71
2023/03/25 06:05:05;;;;;;;7.10;3.40;;;;;;;8.98;100.00;99985.59;5045745;28;20217;-70
2023/03/25 06:07:31;;;;;;;10.37;2.90;;;;;;;8.97;100.00;99988.94;5050208;28;20682;-72
2023/03/25 06:09:56;;;;;;;5.37;2.60;;;;;;;8.95;100.00;99988.09;5051167;28;20221;-70
2023/03/25 06:12:22;;;;;;;5.30;2.50;;;;;;;8.92;100.00;99986.34;5031756;28;20211;-71
2023/03/25 06:14:52;;;;;;;8.60;2.90;;;;;;;8.90;100.00;99993.13;5049315;28;20691;-72
2023/03/25 06:17:20;;;;;;;7.57;2.87;;;;;;;8.90;100.00;99987.19;5051923;28;20194;-70
2023/03/25 06:19:47;;;;;;;10.33;3.10;;;;;;;8.95;100.00;99983.84;5048328;28;20193;-71
2023/03/25 06:22:13;;;;;;;5.97;3.40;;;;;;;8.98;100.00;99986.41;5030516;28;20221;-71
2023/03/25 06:24:40;;;;;;;7.63;3.03;;;;;;;9.00;100.00;99994.09;5050849;28;20251;-72
2023/03/25 06:27:11;;;;;;;5.83;2.53;;;;;;;9.09;100.00;99989.97;5051389;28;20220;-70
2023/03/25 06:29:36;;;;;;;8.17;3.00;;;;;;;9.11;100.00;99995.06;5049813;28;20946;-71
2023/03/25 06:32:03;;;;;;;7.13;3.00;;;;;;;9.13;100.00;99989.13;5046068;28;20280;-71
2023/03/25 06:34:31;;;;;;;6.10;2.63;;;;;;;9.14;100.00;99992.56;5048815;28;20198;-71
2023/03/25 06:36:57;;;;;;;6.23;2.80;;;;;;;9.16;100.00;99998.53;5032859;28;20189;-75
2023/03/25 06:39:23;;;;;;;9.07;3.00;;;;;;;9.15;100.00;99995.13;5050611;28;20193;-71
2023/03/25 06:41:48;;;;;;;9.23;3.10;;;;;;;9.19;100.00;99996.03;5030260;28;20197;-72
2023/03/25 06:44:26;;;;;;;7.70;2.90;;;;;;;9.20;100.00;99997.72;5022841;28;20190;-71
2023/03/25 06:47:11;;;;;;;11.13;3.07;;;;;;;9.26;100.00;100006.31;5046875;28;20284;-72
2023/03/25 06:49:47;;;;;;;7.47;2.87;;;;;;;9.40;100.00;100001.38;5044906;28;20204;-71
2023/03/25 06:52:13;;;;;;;6.20;2.63;;;;;;;9.40;100.00;99994.53;5013799;28;20201;-71
2023/03/25 06:54:39;;;;;;;8.93;2.67;;;;;;;9.38;100.00;100003.91;5044414;28;20550;-70
2023/03/25 06:57:05;;;;;;;8.17;2.53;;;;;;;9.39;100.00;99997.09;5045764;28;20186;-71
2023/03/25 06:59:30;;;;;;;6.73;2.30;;;;;;;9.39;100.00;99989.41;5047721;28;20178;-71
2023/03/25 07:01:56;;;;;;;10.43;2.93;;;;;;;9.44;100.00;99998.84;5046662;28;20635;-72
2023/03/25 07:04:22;;;;;;;5.90;2.77;;;;;;;9.53;100.00;100000.63;5047031;28;20201;-72
2023/03/25 07:06:47;;;;;;;10.30;2.80;;;;;;;9.73;100.00;99987.19;5030371;28;20201;-71
2023/03/25 07:09:13;;;;;;;7.90;2.80;;;;;;;9.64;100.00;99993.94;5032790;28;20190;-71
2023/03/25 07:11:38;;;;;;;12.77;2.40;;;;;;;9.57;100.00;99993.03;5031655;28;20189;-72
2023/03/25 07:14:04;;;;;;;6.30;2.53;;;;;;;9.70;100.00;99996.53;5048153;28;20281;-71
2023/03/25 07:16:30;;;;;;;6.60;2.20;;;;;;;10.07;100.00;99991.78;5032483;28;20568;-71
2023/03/25 07:18:56;;;;;;;7.27;2.50;;;;;;;10.22;100.00;99993.59;5050557;28;20662;-71
2023/03/25 07:21:22;;;;;;;6.87;2.33;;;;;;;10.50;100.00;100005.75;5046670;28;20261;-72
2023/03/25 07:23:48;;;;;;;6.03;2.40;;;;;;;10.71;100.00;99993.91;5046012;28;20214;-71
2023/03/25 07:26:13;;;;;;;7.80;2.60;;;;;;;10.82;100.00;99992.25;5049895;28;20221;-72
2023/03/25 07:28:40;;;;;;;6.40;1.90;;;;;;;10.39;100.00;100000.53;5050105;28;20233;-72
2023/03/25 07:31:10;;;;;;;5.23;2.30;;;;;;;10.34;100.00;100001.34;5048447;28;20202;-72
2023/03/25 07:33:36;;;;;;;5.20;1.90;;;;;;;10.30;100.00;100015.84;5046223;28;20725;-71
2023/03/25 07:36:03;;;;;;;4.97;2.03;;;;;;;10.32;100.00;100009.00;5047854;28;20201;-70
2023/03/25 07:38:29;;;;;;;7.60;2.33;;;;;;;10.83;100.00;100014.44;5048375;28;20726;-72
2023/03/25 07:40:54;;;;;;;5.20;1.93;;;;;;;10.60;100.00;100010.91;5046814;28;20201;-72
2023/03/25 07:43:20;;;;;;;5.73;2.00;;;;;;;10.43;100.00;100016.75;5041524;28;20214;-70
2023/03/25 07:45:53;;;;;;;6.80;2.20;;;;;;;10.35;100.00;100015.84;5032159;28;20193;-72
2023/03/25 07:48:21;;;;;;;6.07;2.13;;;;;;;10.32;100.00;100020.97;5047458;28;20274;-71
2023/03/25 07:50:50;;;;;;;5.80;1.97;;;;;;;10.35;100.00;100021.84;5028076;28;20335;-71
2023/03/25 07:53:15;;;;;;;10.37;2.67;;;;;;;10.44;100.00;100019.34;5046332;28;20205;-74
2023/03/25 07:55:41;;;;;;;7.07;1.83;;;;;;;10.48;100.00;100026.19;5042929;28;20198;-70
2023/03/25 07:58:06;;;;;;;3.17;1.60;;;;;;;10.52;100.00;100027.94;5049849;28;20202;-72
2023/03/25 08:00:32;;;;;;;4.77;1.67;;;;;;;10.93;100.00;100013.63;5049688;28;20197;-72
2023/03/25 08:02:57;;;;;;;4.87;1.93;;;;;;;10.77;100.00;100016.09;5046440;28;20210;-71
2023/03/25 08:05:23;;;;;;;5.33;1.90;;;;;;;10.65;100.00;100016.88;5031833;28;20258;-70
2023/03/25 08:07:52;;;;;;;5.13;1.80;;;;;;;11.00;100.00;100009.38;5032703;28;20217;-70
2023/03/25 08:10:18;;;;;;;5.37;1.43;;;;;;;11.31;100.00;100009.50;5050350;28;20304;-72
2023/03/25 08:12:44;;;;;;;4.70;1.53;;;;;;;11.13;100.00;100021.38;5021681;28;20289;-72
2023/03/25 08:15:10;;;;;;;4.73;1.70;;;;;;;11.60;100.00;100015.59;5027277;28;20623;-72
2023/03/25 08:17:37;;;;;;;4.53;1.40;;;;;;;11.54;100.00;100004.44;5047985;28;20255;-71
2023/03/25 08:20:04;;;;;;;6.23;1.60;;;;;;;11.50;100.00;100029.22;5045561;28;20232;-72
2023/03/25 08:22:30;;;;;;;4.33;1.80;;;;;;;11.82;100.00;100016.47;5032481;28;20225;-72
2023/03/25 08:24:56;;;;;;;5.13;1.70;;;;;;;11.48;100.00;100009.56;5047886;28;20280;-71
2023/03/25 08:27:21;;;;;;;5.07;1.77;;;;;;;11.62;100.00;100013.88;5045177;28;20264;-72
2023/03/25 08:29:56;;;;;;;4.87;1.97;;;;;;;11.76;100.00;100021.59;5045241;28;20689;-72
2023/03/25 08:32:23;;;;;;;8.80;2.33;;;;;;;11.52;100.00;100019.78;5036621;28;20278;-71
2023/03/25 08:34:49;;;;;;;6.47;1.73;;;;;;;11.21;100.00;100035.09;5045871;28;20240;-71
2023/03/25 08:37:14;;;;;;;4.33;1.80;;;;;;;10.99;100.00;100030.72;5035392;28;20221;-70
2023/03/25 08:39:43;;;;;;;4.53;1.80;;;;;;;11.09;100.00;100027.34;5041478;28;20221;-70
2023/03/25 08:42:10;;;;;;;9.10;2.17;;;;;;;11.41;100.00;100013.81;5029711;28;20209;-69
2023/03/25 08:44:37;;;;;;;6.73;1.83;;;;;;;11.69;100.00;100000.22;5038304;28;20199;-70
2023/03/25 08:47:02;;;;;;;6.67;1.90;;;;;;;11.86;100.00;99989.97;5041490;28;20259;-72
2023/03/25 08:49:28;;;;;;;6.43;1.87;;;;;;;12.23;100.00;99955.72;5044863;28;20695;-72
2023/03/25 08:51:56;;;;;;;7.97;2.27;;;;;;;12.27;100.00;99953.16;5044785;28;20230;-71
2023/03/25 08:54:22;;;;;;;3.10;2.00;;;;;;;12.03;100.00;99989.09;5040744;28;20193;-72
2023/03/25 08:56:47;;;;;;;5.50;1.80;;;;;;;11.92;100.00;99966.88;5043604;28;20202;-70
2023/03/25 08:59:13;;;;;;;5.23;2.10;;;;;;;12.03;100.00;99953.19;5025468;28;20276;-72
2023/03/25 09:01:38;;;;;;;4.83;1.90;;;;;;;12.34;100.00;99925.75;5042323;28;20698;-72
2023/03/25 09:04:04;;;;;;;4.87;1.83;;;;;;;12.53;100.00;99961.63;5040123;28;20650;-72
2023/03/25 09:06:29;;;;;;;4.37;1.70;;;;;;;12.10;100.00;99979.69;5028113;28;20221;-71
2023/03/25 09:08:55;;;;;;;7.23;2.20;;;;;;;12.14;100.00;99977.13;5039452;28;20190;-71
2023/03/25 09:11:21;;;;;;;7.90;1.63;;;;;;;11.98;100.00;99992.53;5029698;28;20189;-72
2023/03/25 09:13:46;;;;;;;4.47;2.00;;;;;;;11.69;100.00;100019.88;5033500;28;20206;-74
2023/03/25 09:16:12;;;;;;;4.40;1.90;;;;;;;11.55;100.00;100035.19;5043547;28;20597;-72
2023/03/25 09:18:37;;;;;;;7.13;2.40;;;;;;;11.37;100.00;100009.53;5031412;28;20263;-71
2023/03/25 09:21:03;;;;;;;4.40;1.70;;;;;;;11.49;100.00;100008.69;5041961;28;20205;-72
2023/03/25 09:23:29;;;;;;;4.30;2.00;;;;;;;11.46;100.00;100014.66;5045476;28;20244;-74
2023/03/25 09:25:58;;;;;;;3.50;1.67;;;;;;;11.39;100.00;100001.84;5043105;28;20186;-71
2023/03/25 09:28:23;;;;;;;3.73;1.60;;;;;;;11.23;100.00;100030.81;5041879;28;20205;-71
2023/03/25 09:30:49;;;;;;;3.83;1.70;;;;;;;11.26;100.00;100028.28;5047950;28;20194;-75
2023/03/25 09:33:15;;;;;;;3.60;1.50;;;;;;;10.93;100.00;100028.97;5048394;28;20212;-70
2023/03/25 09:35:40;;;;;;;5.43;1.63;;;;;;;10.82;100.00;100022.09;5044683;28;20209;-74
2023/03/25 09:38:06;;;;;;;5.90;1.97;;;;;;;10.87;100.00;100015.31;5042940;28;20194;-72
2023/03/25 09:40:33;;;;;;;5.67;2.27;;;;;;;10.85;100.00;100017.00;5044938;28;20224;-73
2023/03/25 09:43:17;;;;;;;2.63;1.83;;;;;;;10.72;100.00;100025.47;5043351;28;20780;-72
2023/03/25 09:45:47;;;;;;;7.33;2.00;;;;;;;10.52;100.00;100043.28;5040700;28;20191;-71
2023/03/25 09:48:21;;;;;;;3.27;1.40;;;;;;;10.09;100.00;100041.25;5043514;28;20225;-71
2023/03/25 09:50:47;;;;;;;4.63;1.50;;;;;;;9.81;100.00;100040.97;5047533;28;20197;-71
2023/03/25 09:53:27;;;;;;;3.33;1.00;;;;;;;9.39;100.00;100041.38;5049577;28;20625;-71
2023/03/25 09:55:53;;;;;;;3.17;0.87;;;;;;;9.26;100.00;100036.97;5036276;28;20213;-70
2023/03/25 09:58:40;;;;;;;2.87;0.83;;;;;;;9.15;100.00;100043.66;5049988;28;20655;-73
2023/03/25 10:01:12;;;;;;;2.87;1.00;;;;;;;8.92;100.00;100037.41;5049998;28;20201;-74
2023/03/25 10:04:02;;;;;;;4.27;0.70;;;;;;;8.76;100.00;100049.97;5043037;28;20619;-71
2023/03/25 10:06:31;;;;;;;2.13;0.83;;;;;;;8.76;100.00;100038.03;5048680;28;20200;-71
2023/03/25 10:09:15;;;;;;;2.17;0.70;;;;;;;8.73;100.00;100037.16;5033670;28;20205;-74
2023/03/25 10:12:11;;;;;;;1.97;0.80;;;;;;;8.82;100.00;100055.13;5046960;28;20189;-75
2023/03/25 10:15:00;;;;;;;3.80;1.10;;;;;;;8.87;100.00;100050.94;5031089;28;20283;-74
2023/03/25 10:17:55;;;;;;;5.33;1.20;;;;;;;9.01;100.00;100052.84;5030476;28;20549;-71
2023/03/25 10:20:35;;;;;;;5.13;1.00;;;;;;;9.67;100.00;100042.53;5044337;28;20949;-75
2023/03/25 10:23:28;;;;;;;6.53;1.50;;;;;;;10.56;100.00;100047.56;5048765;28;20237;-72
2023/03/25 10:26:00;;;;;;;3.07;1.07;;;;;;;15.05;100.00;99800.72;5025636;28;20667;-73
2023/03/25 10:28:38;;;;;;;2.87;0.90;;;;;;;11.84;100.00;100025.88;5029979;28;20194;-75
2023/03/25 10:31:10;;;;;;;6.47;1.43;;;;;;;10.66;100.00;100063.84;5030124;28;20206;-71
2023/03/25 10:33:40;;;;;;;2.77;1.10;;;;;;;11.36;100.00;100030.88;5031769;28;20236;-71
2023/03/25 10:36:11;;;;;;;2.77;1.30;;;;;;;18.05;100.00;99522.97;5049816;28;20205;-76
2023/03/25 10:38:37;;;;;;;4.23;1.23;;;;;;;18.01;100.00;99399.59;5046711;28;20193;-73
2023/03/25 10:41:24;;;;;;;4.33;1.23;;;;;;;18.01;96.24;99331.41;5047824;28;20206;-72
2023/03/25 10:43:50;;;;;;;5.33;1.23;;;;;;;18.78;86.36;99230.88;5046375;28;20249;-75
2023/03/25 10:46:45;;;;;;;4.40;1.33;;;;;;;16.46;100.00;99327.78;5028286;28;20225;-75
2023/03/25 10:49:14;;;;;;;3.27;1.00;;;;;;;13.81;100.00;99664.22;5047714;28;20203;-73
2023/03/25 10:51:40;;;;;;;5.03;1.47;;;;;;;12.93;100.00;99840.75;5028685;28;20226;-74
2023/03/25 10:54:05;;;;;;;4.70;1.63;;;;;;;12.69;100.00;99989.00;5046619;28;20286;-72
2023/03/25 10:56:35;;;;;;;2.57;1.20;;;;;;;12.57;100.00;99942.81;5048683;28;20277;-71
2023/03/25 10:59:11;;;;;;;4.40;1.47;;;;;;;11.75;100.00;100087.41;5028552;28;20198;-73
2023/03/25 11:01:41;;;;;;;5.57;1.50;;;;;;;11.74;100.00;100113.91;5046258;28;20612;-72
2023/03/25 11:04:12;;;;;;;4.17;1.20;;;;;;;13.27;100.00;99981.94;5046696;28;20214;-74
2023/03/25 11:06:40;;;;;;;8.97;1.77;;;;;;;17.05;100.00;99570.00;5011037;28;20796;-70
2023/03/25 11:09:14;;;;;;;7.77;2.00;;;;;;;17.85;94.16;99328.50;5031202;28;20240;-72
2023/03/25 11:11:40;;;;;;;1.73;1.00;;;;;;;17.50;93.60;99321.06;5043246;28;20190;-74
2023/03/25 11:14:06;;;;;;;6.37;1.23;;;;;;;14.33;100.00;99560.50;5045397;28;20734;-69
2023/03/25 11:16:34;;;;;;;5.03;1.27;;;;;;;16.56;100.00;99616.97;5015584;28;20198;-72
2023/03/25 11:19:00;;;;;;;5.07;1.73;;;;;;;16.47;100.00;99567.22;5031455;28;20626;-74
2023/03/25 11:21:31;;;;;;;7.90;1.50;;;;;;;14.65;100.00;99684.44;5047206;28;20194;-73
2023/03/25 11:23:58;;;;;;;6.80;1.73;;;;;;;12.99;100.00;99920.38;5046661;28;20253;-75
2023/03/25 11:26:35;;;;;;;6.73;1.50;;;;;;;12.16;100.00;100061.84;5047728;28;20662;-73
2023/03/25 11:29:12;;;;;;;6.97;1.87;;;;;;;11.65;100.00;100161.75;5045479;28;20228;-73
2023/03/25 11:31:41;;;;;;;4.50;2.20;;;;;;;11.21;100.00;100224.72;5048945;28;20284;-72
2023/03/25 11:34:09;;;;;;;8.63;1.77;;;;;;;10.61;100.00;100098.81;5048376;28;20205;-73
2023/03/25 11:36:58;;;;;;;5.10;1.80;;;;;;;10.23;100.00;100061.84;5023304;28;20616;-75
2023/03/25 11:39:39;;;;;;;6.57;1.87;;;;;;;10.31;100.00;100063.59;5017606;28;20572;-74